| time (UTC) | temp F | wind direction | speed MPH | gust MPH | rain 1hr in | rain 24hr in | rain mn in | humidity % | barometer mb |
| 20260906003817 | 83 | 0.0 | 0.0 | 0.00 | 0.00 | 0.00 | 85 | 1010.6 | |
| 20260906002838 | 83 | 0.0 | 0.0 | 0.00 | 0.00 | 0.00 | 84 | 1010.8 | |
| 20260906001837 | 84 | 0.0 | 0.0 | 0.00 | 0.00 | 0.00 | 84 | 1011.0 | |
| 20260906000818 | 84 | 0.0 | 0.0 | 0.00 | 0.00 | 0.00 | 83 | 1011.1 | |
| 20260905235817 | 84 | 0.0 | 0.0 | 0.00 | 0.00 | 0.00 | 83 | 1011.0 | |
| 20260905234837 | 84 | 0.0 | 0.0 | 0.00 | 0.00 | 0.00 | 82 | 1011.0 | |
| 20260905233818 | 85 | 0.0 | 0.0 | 0.00 | 0.00 | 0.00 | 81 | 1010.9 | |
| 20260905232818 | 85 | 0.0 | 0.0 | 0.00 | 0.00 | 0.00 | 80 | 1010.9 | |
| 20260905231817 | 86 | 0.0 | 0.0 | 0.00 | 0.00 | 0.00 | 79 | 1010.6 | |
| 20260905230838 | 86 | 0.0 | 0.0 | 0.00 | 0.00 | 0.00 | 77 | 1010.5 | |
| 20260905225858 | 88 | 0.0 | 0.0 | 0.00 | 0.00 | 0.00 | 75 | 1010.2 | |
| 20260905225517 | 88 | 0.0 | 0.0 | 0.00 | 0.00 | 0.00 | 74 | 1010.2 | |
| 20260905224517 | 88 | 0.0 | 0.0 | 0.00 | 0.00 | 0.00 | 73 | 1010.0 | |
| 20260905223537 | 89 | 0.0 | 0.0 | 0.00 | 0.00 | 0.00 | 70 | 1010.0 | |
| 20260905222517 | 90 | 0.0 | 0.0 | 0.00 | 0.00 | 0.00 | 67 | 1010.1 | |
| 20260905221537 | 91 | 0.0 | 0.0 | 0.00 | 0.00 | 0.00 | 65 | 1010.1 | |
| 20260905220517 | 92 | 0.0 | 0.0 | 0.00 | 0.00 | 0.00 | 65 | 1010.2 | |
| 20260905215517 | 92 | 0.0 | 1.0 | 0.00 | 0.00 | 0.00 | 63 | 1010.2 | |
| 20260905214617 | 93 | 0.0 | 1.0 | 0.00 | 0.00 | 0.00 | 62 | 1010.3 | |
| 20260905213518 | 93 | 0.0 | 0.0 | 0.00 | 0.00 | 0.00 | 62 | 1010.3 | |
| 20260905212538 | 94 | 0.0 | 0.0 | 0.00 | 0.00 | 0.00 | 58 | 1010.2 | |
| 20260905212317 | 94 | 0.0 | 1.0 | 0.00 | 0.00 | 0.00 | 58 | 1010.1 | |
| 20260905211317 | 95 | 0.0 | 1.0 | 0.00 | 0.00 | 0.00 | 57 | 1010.1 | |
| 20260905210337 | 96 | 0.0 | 0.0 | 0.00 | 0.00 | 0.00 | 58 | 1010.0 | |
| 20260905205317 | 95 | 23 | 1.0 | 2.0 | 0.00 | 0.00 | 0.00 | 58 | 1010.0 |
| 20260905204317 | 95 | 0.0 | 1.0 | 0.00 | 0.00 | 0.00 | 58 | 1010.0 | |
| 20260905203337 | 95 | 23 | 2.0 | 2.0 | 0.00 | 0.00 | 0.00 | 59 | 1010.0 |
| 20260905202338 | 94 | 23 | 1.0 | 2.0 | 0.00 | 0.00 | 0.00 | 61 | 1010.0 |
| 20260905201317 | 94 | 0 | 1.0 | 2.0 | 0.00 | 0.00 | 0.00 | 58 | 1010.0 |
| 20260905200317 | 94 | 0.0 | 1.0 | 0.00 | 0.00 | 0.00 | 61 | 1010.0 | |
| 20260905195317 | 95 | 203 | 1.0 | 1.0 | 0.00 | 0.00 | 0.00 | 56 | 1010.1 |
| 20260905194317 | 94 | 0 | 1.0 | 1.0 | 0.00 | 0.00 | 0.00 | 60 | 1010.1 |
| 20260905193317 | 95 | 0 | 1.0 | 2.0 | 0.00 | 0.00 | 0.00 | 58 | 1010.6 |
| 20260905192338 | 95 | 0.0 | 1.0 | 0.00 | 0.00 | 0.00 | 58 | 1010.8 | |
| 20260905191317 | 95 | 248 | 2.0 | 3.0 | 0.00 | 0.00 | 0.00 | 57 | 1011.0 |
| 20260905190342 | 94 | 23 | 1.0 | 1.0 | 0.00 | 0.00 | 0.00 | 60 | 1011.1 |
| 20260905185918 | 94 | 23 | 1.0 | 2.0 | 0.00 | 0.00 | 0.00 | 59 | 1011.2 |
| 20260905184938 | 94 | 23 | 1.0 | 1.0 | 0.00 | 0.00 | 0.00 | 59 | 1011.4 |
| 20260905183937 | 94 | 0.0 | 1.0 | 0.00 | 0.00 | 0.00 | 61 | 1011.6 | |
| 20260905182917 | 95 | 23 | 1.0 | 1.0 | 0.00 | 0.00 | 0.00 | 61 | 1011.8 |
| 20260905181917 | 93 | 0.0 | 1.0 | 0.00 | 0.00 | 0.00 | 65 | 1011.9 | |
| 20260905180917 | 92 | 23 | 1.0 | 3.0 | 0.00 | 0.01 | 0.00 | 63 | 1012.0 |
| 20260905175917 | 91 | 23 | 1.0 | 2.0 | 0.00 | 0.01 | 0.00 | 67 | 1012.1 |
| 20260905174917 | 91 | 68 | 1.0 | 1.0 | 0.00 | 0.01 | 0.00 | 69 | 1012.4 |
| 20260905173917 | 91 | 0.0 | 0.0 | 0.00 | 0.02 | 0.00 | 70 | 1012.8 | |
| 20260905172916 | 91 | 68 | 1.0 | 2.0 | 0.00 | 0.03 | 0.00 | 68 | 1012.8 |
| 20260905171917 | 90 | 0.0 | 1.0 | 0.00 | 0.07 | 0.00 | 68 | 1012.8 | |
| 20260905170917 | 90 | 23 | 1.0 | 1.0 | 0.00 | 0.17 | 0.00 | 72 | 1012.8 |
| 20260905165917 | 89 | 23 | 1.0 | 1.0 | 0.00 | 0.18 | 0.00 | 72 | 1013.1 |
| 20260905164937 | 88 | 23 | 1.0 | 1.0 | 0.00 | 0.24 | 0.00 | 73 | 1013.3 |
| 20260905163917 | 88 | 23 | 2.0 | 3.0 | 0.00 | 0.25 | 0.00 | 74 | 1013.3 |
| 20260905162917 | 86 | 0.0 | 1.0 | 0.00 | 0.25 | 0.00 | 80 | 1013.6 | |
| 20260905161917 | 86 | 225 | 1.0 | 1.0 | 0.00 | 0.25 | 0.00 | 77 | 1013.9 |
| 20260905160917 | 86 | 0.0 | 1.0 | 0.00 | 0.25 | 0.00 | 76 | 1013.9 | |
| 20260905155917 | 87 | 180 | 1.0 | 2.0 | 0.00 | 0.25 | 0.00 | 77 | 1013.8 |
| 20260905154916 | 85 | 68 | 1.0 | 2.0 | 0.00 | 0.25 | 0.00 | 81 | 1014.2 |
| 20260905153917 | 84 | 45 | 2.0 | 3.0 | 0.00 | 0.25 | 0.00 | 80 | 1014.3 |
| 20260905152916 | 84 | 68 | 1.0 | 1.0 | 0.00 | 0.25 | 0.00 | 82 | 1014.2 |
| 20260905151916 | 85 | 23 | 2.0 | 4.0 | 0.00 | 0.25 | 0.00 | 82 | 1014.2 |
| 20260905150916 | 83 | 203 | 1.0 | 4.0 | 0.00 | 0.25 | 0.00 | 84 | 1014.2 |
| 20260905145917 | 83 | 0.0 | 1.0 | 0.00 | 0.25 | 0.00 | 85 | 1014.2 | |
| 20260905144917 | 83 | 0.0 | 1.0 | 0.00 | 0.25 | 0.00 | 85 | 1014.3 | |
| 20260905143917 | 83 | 0.0 | 1.0 | 0.00 | 0.25 | 0.00 | 85 | 1014.2 | |
| 20260905142919 | 83 | 23 | 1.0 | 1.0 | 0.00 | 0.25 | 0.00 | 87 | 1014.1 |
| 20260905141937 | 82 | 23 | 1.0 | 2.0 | 0.00 | 0.25 | 0.00 | 89 | 1014.2 |
| 20260905140917 | 81 | 0.0 | 1.0 | 0.00 | 0.25 | 0.00 | 90 | 1014.4 | |
| 20260905135916 | 81 | 23 | 1.0 | 1.0 | 0.00 | 0.25 | 0.00 | 92 | 1014.3 |
| 20260905134917 | 80 | 0.0 | 0.0 | 0.00 | 0.25 | 0.00 | 94 | 1014.4 | |
| 20260905133916 | 79 | 0 | 1.0 | 2.0 | 0.00 | 0.25 | 0.00 | 95 | 1014.4 |
| 20260905132916 | 79 | 23 | 1.0 | 2.0 | 0.00 | 0.25 | 0.00 | 96 | 1014.3 |
| 20260905131916 | 79 | 0.0 | 1.0 | 0.00 | 0.25 | 0.00 | 96 | 1014.3 | |
| 20260905130917 | 78 | 23 | 2.0 | 3.0 | 0.00 | 0.25 | 0.00 | 97 | 1014.3 |
| 20260905125917 | 78 | 0.0 | 0.0 | 0.00 | 0.25 | 0.00 | 97 | 1014.2 | |
| 20260905124916 | 77 | 0.0 | 0.0 | 0.00 | 0.25 | 0.00 | 97 | 1014.1 | |
| 20260905123937 | 77 | 0.0 | 0.0 | 0.00 | 0.25 | 0.00 | 97 | 1014.3 | |
| 20260905122916 | 76 | 0.0 | 0.0 | 0.00 | 0.25 | 0.00 | 97 | 1014.1 | |
| 20260905121917 | 76 | 0.0 | 1.0 | 0.00 | 0.25 | 0.00 | 96 | 1014.2 | |
| 20260905120918 | 76 | 0.0 | 0.0 | 0.00 | 0.25 | 0.00 | 97 | 1014.2 | |
| 20260905115916 | 76 | 0.0 | 0.0 | 0.00 | 0.25 | 0.00 | 97 | 1014.1 | |
| 20260905114916 | 75 | 0.0 | 0.0 | 0.00 | 0.25 | 0.00 | 97 | 1013.9 | |
| 20260905113938 | 75 | 0.0 | 0.0 | 0.00 | 0.25 | 0.00 | 97 | 1014.2 | |
| 20260905112916 | 75 | 0.0 | 0.0 | 0.00 | 0.25 | 0.00 | 96 | 1014.1 | |
| 20260905111916 | 75 | 0.0 | 0.0 | 0.00 | 0.25 | 0.00 | 97 | 1013.8 | |
| 20260905110916 | 75 | 0.0 | 0.0 | 0.00 | 0.25 | 0.00 | 97 | 1013.7 | |
| 20260905105917 | 74 | 0.0 | 0.0 | 0.00 | 0.25 | 0.00 | 96 | 1013.7 | |
| 20260905104917 | 74 | 0.0 | 0.0 | 0.00 | 0.25 | 0.00 | 96 | 1013.6 | |
| 20260905103917 | 74 | 0.0 | 0.0 | 0.00 | 0.25 | 0.00 | 96 | 1013.5 | |
| 20260905102937 | 74 | 0.0 | 0.0 | 0.00 | 0.25 | 0.00 | 96 | 1013.4 | |
| 20260905101936 | 74 | 0.0 | 0.0 | 0.00 | 0.25 | 0.00 | 96 | 1013.4 | |
| 20260905100938 | 74 | 0.0 | 0.0 | 0.00 | 0.25 | 0.00 | 96 | 1013.4 | |
| 20260905095916 | 74 | 0.0 | 0.0 | 0.00 | 0.25 | 0.00 | 96 | 1013.4 | |
| 20260905094937 | 74 | 0.0 | 0.0 | 0.00 | 0.25 | 0.00 | 96 | 1013.4 | |
| 20260905093916 | 74 | 0.0 | 0.0 | 0.00 | 0.25 | 0.00 | 96 | 1013.3 | |
| 20260905092916 | 74 | 0.0 | 0.0 | 0.00 | 0.25 | 0.00 | 96 | 1013.3 | |
| 20260905091916 | 74 | 0.0 | 0.0 | 0.00 | 0.25 | 0.00 | 96 | 1013.0 | |
| 20260905090921 | 73 | 0.0 | 0.0 | 0.00 | 0.25 | 0.00 | 96 | 1012.9 | |
| 20260905085916 | 73 | 0.0 | 0.0 | 0.00 | 0.25 | 0.00 | 96 | 1012.9 | |
| 20260905084916 | 74 | 0.0 | 0.0 | 0.00 | 0.25 | 0.00 | 96 | 1012.8 | |
| 20260905083916 | 74 | 0.0 | 0.0 | 0.00 | 0.25 | 0.00 | 96 | 1012.8 | |
| 20260905082916 | 74 | 0.0 | 0.0 | 0.00 | 0.25 | 0.00 | 96 | 1012.8 | |
| 20260905081916 | 74 | 0.0 | 0.0 | 0.00 | 0.25 | 0.00 | 96 | 1012.9 | |
| 20260905080917 | 74 | 0.0 | 0.0 | 0.00 | 0.25 | 0.00 | 96 | 1012.9 | |
| 20260905075916 | 74 | 0.0 | 0.0 | 0.00 | 0.25 | 0.00 | 96 | 1012.9 | |
| 20260905074917 | 74 | 0.0 | 0.0 | 0.00 | 0.25 | 0.00 | 96 | 1013.1 | |
| 20260905073917 | 74 | 0.0 | 0.0 | 0.00 | 0.25 | 0.00 | 96 | 1012.9 | |
| 20260905072917 | 74 | 0.0 | 0.0 | 0.00 | 0.25 | 0.00 | 96 | 1012.8 | |
| 20260905071916 | 74 | 0.0 | 0.0 | 0.00 | 0.25 | 0.00 | 96 | 1013.1 | |
| 20260905070917 | 75 | 0.0 | 0.0 | 0.00 | 0.25 | 0.00 | 96 | 1013.1 | |
| 20260905065916 | 74 | 0.0 | 0.0 | 0.00 | 0.25 | 0.00 | 96 | 1013.1 | |
| 20260905064916 | 75 | 0.0 | 0.0 | 0.00 | 0.25 | 0.00 | 96 | 1013.3 | |
| 20260905063916 | 75 | 0.0 | 0.0 | 0.00 | 0.25 | 0.00 | 96 | 1013.4 | |
| 20260905062916 | 75 | 0.0 | 0.0 | 0.00 | 0.25 | 0.00 | 96 | 1013.5 | |
| 20260905061937 | 75 | 0.0 | 0.0 | 0.00 | 0.25 | 0.00 | 96 | 1013.8 | |
| 20260905060917 | 75 | 0.0 | 0.0 | 0.00 | 0.25 | 0.00 | 96 | 1013.8 | |
| 20260905055917 | 75 | 0.0 | 0.0 | 0.00 | 0.25 | 0.00 | 96 | 1013.9 | |
| 20260905054916 | 75 | 0.0 | 0.0 | 0.00 | 0.25 | 0.00 | 96 | 1014.0 | |
| 20260905053917 | 75 | 0.0 | 0.0 | 0.00 | 0.25 | 0.00 | 96 | 1014.1 | |
| 20260905052937 | 75 | 0.0 | 0.0 | 0.00 | 0.25 | 0.00 | 96 | 1014.2 | |
| 20260905051916 | 76 | 0.0 | 0.0 | 0.00 | 0.25 | 0.00 | 96 | 1014.3 | |
| 20260905050936 | 76 | 0.0 | 0.0 | 0.00 | 0.25 | 0.00 | 96 | 1014.4 | |
| 20260905045936 | 76 | 0.0 | 0.0 | 0.00 | 0.25 | 0.00 | 95 | 1014.5 | |
| 20260905044917 | 76 | 0.0 | 0.0 | 0.00 | 0.25 | 0.00 | 95 | 1014.6 | |
| 20260905043916 | 76 | 0.0 | 0.0 | 0.00 | 0.25 | 0.00 | 95 | 1014.6 | |
| 20260905042917 | 76 | 0.0 | 0.0 | 0.00 | 0.25 | 0.00 | 95 | 1014.5 | |
| 20260905041918 | 76 | 0.0 | 0.0 | 0.00 | 0.25 | 0.00 | 95 | 1014.4 | |
| 20260905040916 | 76 | 0.0 | 0.0 | 0.00 | 0.25 | 0.00 | 95 | 1014.6 | |
| 20260905035918 | 76 | 0.0 | 0.0 | 0.00 | 0.25 | 0.25 | 95 | 1014.9 | |
| 20260905034958 | 76 | 0.0 | 0.0 | 0.00 | 0.25 | 0.25 | 95 | 1014.9 | |
| 20260905033937 | 77 | 0.0 | 0.0 | 0.00 | 0.25 | 0.25 | 95 | 1014.7 | |
| 20260905032937 | 77 | 0.0 | 0.0 | 0.00 | 0.25 | 0.25 | 95 | 1014.8 | |
| 20260905031917 | 77 | 0.0 | 0.0 | 0.00 | 0.25 | 0.25 | 95 | 1015.0 | |
| 20260905030916 | 77 | 0.0 | 0.0 | 0.00 | 0.25 | 0.25 | 95 | 1014.9 | |
| 20260905025917 | 77 | 0.0 | 0.0 | 0.00 | 0.25 | 0.25 | 95 | 1015.1 | |
| 20260905024957 | 77 | 0.0 | 0.0 | 0.00 | 0.25 | 0.25 | 95 | 1015.1 | |
| 20260905023918 | 77 | 0.0 | 0.0 | 0.00 | 0.25 | 0.25 | 94 | 1015.3 | |
| 20260905022917 | 78 | 0.0 | 0.0 | 0.00 | 0.25 | 0.25 | 94 | 1015.2 | |
| 20260905021918 | 78 | 0.0 | 0.0 | 0.00 | 0.25 | 0.25 | 94 | 1015.5 | |
| 20260905020919 | 78 | 0.0 | 0.0 | 0.00 | 0.25 | 0.25 | 94 | 1015.3 | |
| 20260905015937 | 78 | 0.0 | 0.0 | 0.00 | 0.25 | 0.25 | 94 | 1015.6 | |
| 20260905014917 | 78 | 0.0 | 0.0 | 0.00 | 0.25 | 0.25 | 94 | 1015.7 | |
| 20260905013918 | 78 | 0.0 | 0.0 | 0.00 | 0.25 | 0.25 | 94 | 1015.7 | |
| 20260905012917 | 79 | 0.0 | 0.0 | 0.00 | 0.25 | 0.25 | 93 | 1015.5 | |
| 20260905011917 | 79 | 0.0 | 0.0 | 0.00 | 0.25 | 0.25 | 93 | 1015.5 | |
| 20260905010916 | 79 | 0.0 | 0.0 | 0.00 | 0.25 | 0.25 | 93 | 1015.3 | |
| 20260905005916 | 79 | 0.0 | 0.0 | 0.00 | 0.25 | 0.25 | 92 | 1015.0 | |
| 20260905004916 | 79 | 0.0 | 0.0 | 0.00 | 0.25 | 0.25 | 92 | 1015.1 |